sensor_id;sensor_type;location;lat;lon;timestamp;P1;durP1;ratioP1;P2;durP2;ratioP2
70981;SDS011;58640;51.320;9.456;2022-12-29T00:01:18;3.17;;;2.08;;
70981;SDS011;58640;51.320;9.456;2022-12-29T00:03:46;2.53;;;1.45;;
70981;SDS011;58640;51.320;9.456;2022-12-29T00:06:12;2.97;;;1.95;;
70981;SDS011;58640;51.320;9.456;2022-12-29T00:08:37;4.97;;;2.20;;
70981;SDS011;58640;51.320;9.456;2022-12-29T00:11:06;2.75;;;1.50;;
70981;SDS011;58640;51.320;9.456;2022-12-29T00:13:39;3.13;;;1.92;;
70981;SDS011;58640;51.320;9.456;2022-12-29T00:16:24;1.83;;;1.70;;
70981;SDS011;58640;51.320;9.456;2022-12-29T00:18:49;3.83;;;1.98;;
70981;SDS011;58640;51.320;9.456;2022-12-29T00:21:15;4.57;;;2.00;;
70981;SDS011;58640;51.320;9.456;2022-12-29T00:24:01;3.63;;;1.88;;
70981;SDS011;58640;51.320;9.456;2022-12-29T00:26:46;4.43;;;2.55;;
70981;SDS011;58640;51.320;9.456;2022-12-29T00:29:37;4.88;;;1.83;;
70981;SDS011;58640;51.320;9.456;2022-12-29T00:32:21;3.28;;;1.95;;
70981;SDS011;58640;51.320;9.456;2022-12-29T00:35:06;3.20;;;1.70;;
70981;SDS011;58640;51.320;9.456;2022-12-29T00:37:38;3.05;;;1.90;;
70981;SDS011;58640;51.320;9.456;2022-12-29T00:40:26;3.53;;;1.98;;
70981;SDS011;58640;51.320;9.456;2022-12-29T00:43:10;2.60;;;1.92;;
70981;SDS011;58640;51.320;9.456;2022-12-29T00:45:54;2.80;;;1.92;;
70981;SDS011;58640;51.320;9.456;2022-12-29T00:48:19;6.60;;;1.90;;
70981;SDS011;58640;51.320;9.456;2022-12-29T00:51:05;2.25;;;1.98;;
70981;SDS011;58640;51.320;9.456;2022-12-29T00:53:31;2.72;;;1.75;;
70981;SDS011;58640;51.320;9.456;2022-12-29T00:55:56;2.33;;;1.92;;
70981;SDS011;58640;51.320;9.456;2022-12-29T00:58:21;2.40;;;1.95;;
70981;SDS011;58640;51.320;9.456;2022-12-29T01:00:47;3.63;;;1.63;;
70981;SDS011;58640;51.320;9.456;2022-12-29T01:03:12;1.73;;;1.38;;
70981;SDS011;58640;51.320;9.456;2022-12-29T01:05:37;1.80;;;1.58;;
70981;SDS011;58640;51.320;9.456;2022-12-29T01:08:03;2.88;;;2.08;;
70981;SDS011;58640;51.320;9.456;2022-12-29T01:10:28;2.55;;;1.70;;
70981;SDS011;58640;51.320;9.456;2022-12-29T01:12:54;4.00;;;2.30;;
70981;SDS011;58640;51.320;9.456;2022-12-29T01:15:19;2.95;;;2.00;;
70981;SDS011;58640;51.320;9.456;2022-12-29T01:17:45;4.45;;;2.20;;
70981;SDS011;58640;51.320;9.456;2022-12-29T01:20:12;2.83;;;2.00;;
70981;SDS011;58640;51.320;9.456;2022-12-29T01:22:38;2.67;;;1.95;;
70981;SDS011;58640;51.320;9.456;2022-12-29T01:25:04;5.00;;;2.30;;
70981;SDS011;58640;51.320;9.456;2022-12-29T01:27:30;2.17;;;1.88;;
70981;SDS011;58640;51.320;9.456;2022-12-29T01:29:55;8.55;;;1.95;;
70981;SDS011;58640;51.320;9.456;2022-12-29T01:32:21;4.20;;;1.88;;
70981;SDS011;58640;51.320;9.456;2022-12-29T01:34:46;2.20;;;1.80;;
70981;SDS011;58640;51.320;9.456;2022-12-29T01:37:12;3.90;;;2.25;;
70981;SDS011;58640;51.320;9.456;2022-12-29T01:39:37;1.92;;;1.70;;
70981;SDS011;58640;51.320;9.456;2022-12-29T01:42:02;6.93;;;1.90;;
70981;SDS011;58640;51.320;9.456;2022-12-29T01:44:47;2.25;;;1.95;;
70981;SDS011;58640;51.320;9.456;2022-12-29T01:47:17;2.30;;;1.60;;
70981;SDS011;58640;51.320;9.456;2022-12-29T01:49:47;5.45;;;1.85;;
70981;SDS011;58640;51.320;9.456;2022-12-29T01:52:13;3.72;;;1.48;;
70981;SDS011;58640;51.320;9.456;2022-12-29T01:54:40;2.67;;;1.65;;
70981;SDS011;58640;51.320;9.456;2022-12-29T01:57:10;3.58;;;1.92;;
70981;SDS011;58640;51.320;9.456;2022-12-29T01:59:40;2.10;;;1.88;;
70981;SDS011;58640;51.320;9.456;2022-12-29T02:02:16;3.35;;;1.67;;
70981;SDS011;58640;51.320;9.456;2022-12-29T02:04:42;4.80;;;1.98;;
70981;SDS011;58640;51.320;9.456;2022-12-29T02:07:14;2.67;;;1.60;;
70981;SDS011;58640;51.320;9.456;2022-12-29T02:09:43;2.05;;;1.52;;
70981;SDS011;58640;51.320;9.456;2022-12-29T02:12:12;3.28;;;1.90;;
70981;SDS011;58640;51.320;9.456;2022-12-29T02:14:38;1.98;;;1.75;;
70981;SDS011;58640;51.320;9.456;2022-12-29T02:22:48;2.33;;;1.75;;
70981;SDS011;58640;51.320;9.456;2022-12-29T02:25:26;3.35;;;1.60;;
70981;SDS011;58640;51.320;9.456;2022-12-29T02:35:54;3.42;;;1.40;;
70981;SDS011;58640;51.320;9.456;2022-12-29T02:40:51;2.15;;;1.60;;
70981;SDS011;58640;51.320;9.456;2022-12-29T02:46:04;4.65;;;2.90;;
70981;SDS011;58640;51.320;9.456;2022-12-29T02:48:50;2.15;;;1.65;;
70981;SDS011;58640;51.320;9.456;2022-12-29T02:51:23;3.70;;;1.88;;
70981;SDS011;58640;51.320;9.456;2022-12-29T02:53:53;5.15;;;1.85;;
70981;SDS011;58640;51.320;9.456;2022-12-29T02:56:39;3.25;;;1.50;;
70981;SDS011;58640;51.320;9.456;2022-12-29T02:59:04;2.72;;;1.60;;
70981;SDS011;58640;51.320;9.456;2022-12-29T03:04:54;1.88;;;1.70;;
70981;SDS011;58640;51.320;9.456;2022-12-29T03:07:55;4.03;;;1.58;;
70981;SDS011;58640;51.320;9.456;2022-12-29T03:10:44;2.17;;;1.70;;
70981;SDS011;58640;51.320;9.456;2022-12-29T03:13:23;1.60;;;1.50;;
70981;SDS011;58640;51.320;9.456;2022-12-29T03:16:13;1.77;;;1.30;;
70981;SDS011;58640;51.320;9.456;2022-12-29T03:21:09;1.85;;;1.23;;
70981;SDS011;58640;51.320;9.456;2022-12-29T03:23:40;1.50;;;1.40;;
70981;SDS011;58640;51.320;9.456;2022-12-29T03:26:08;2.53;;;1.35;;
70981;SDS011;58640;51.320;9.456;2022-12-29T03:28:47;4.10;;;1.40;;
70981;SDS011;58640;51.320;9.456;2022-12-29T03:31:18;1.92;;;1.80;;
70981;SDS011;58640;51.320;9.456;2022-12-29T03:33:45;1.42;;;1.33;;
70981;SDS011;58640;51.320;9.456;2022-12-29T03:36:13;3.20;;;1.90;;
70981;SDS011;58640;51.320;9.456;2022-12-29T03:38:50;2.90;;;1.50;;
70981;SDS011;58640;51.320;9.456;2022-12-29T03:41:24;3.13;;;1.33;;
70981;SDS011;58640;51.320;9.456;2022-12-29T03:43:53;2.38;;;0.93;;
70981;SDS011;58640;51.320;9.456;2022-12-29T03:46:19;1.42;;;0.90;;
70981;SDS011;58640;51.320;9.456;2022-12-29T03:48:44;2.50;;;1.25;;
70981;SDS011;58640;51.320;9.456;2022-12-29T03:51:09;1.17;;;1.08;;
70981;SDS011;58640;51.320;9.456;2022-12-29T03:53:35;1.48;;;1.08;;
70981;SDS011;58640;51.320;9.456;2022-12-29T03:56:00;2.28;;;1.00;;
70981;SDS011;58640;51.320;9.456;2022-12-29T03:58:25;2.47;;;1.20;;
70981;SDS011;58640;51.320;9.456;2022-12-29T04:00:51;2.03;;;1.13;;
70981;SDS011;58640;51.320;9.456;2022-12-29T04:03:16;1.27;;;0.90;;
70981;SDS011;58640;51.320;9.456;2022-12-29T04:05:41;0.80;;;0.80;;
70981;SDS011;58640;51.320;9.456;2022-12-29T04:08:07;0.93;;;0.70;;
70981;SDS011;58640;51.320;9.456;2022-12-29T04:10:32;0.70;;;0.70;;
70981;SDS011;58640;51.320;9.456;2022-12-29T04:12:58;0.52;;;0.52;;
70981;SDS011;58640;51.320;9.456;2022-12-29T04:15:23;1.20;;;0.60;;
70981;SDS011;58640;51.320;9.456;2022-12-29T04:17:49;0.85;;;0.80;;
70981;SDS011;58640;51.320;9.456;2022-12-29T04:20:14;0.50;;;0.50;;
70981;SDS011;58640;51.320;9.456;2022-12-29T04:23:02;0.50;;;0.50;;
70981;SDS011;58640;51.320;9.456;2022-12-29T04:25:28;1.13;;;0.55;;
70981;SDS011;58640;51.320;9.456;2022-12-29T04:27:55;1.08;;;0.52;;
70981;SDS011;58640;51.320;9.456;2022-12-29T04:30:20;0.57;;;0.57;;
70981;SDS011;58640;51.320;9.456;2022-12-29T04:32:45;0.65;;;0.65;;
70981;SDS011;58640;51.320;9.456;2022-12-29T04:35:11;0.90;;;0.68;;
70981;SDS011;58640;51.320;9.456;2022-12-29T04:37:36;0.60;;;0.60;;
70981;SDS011;58640;51.320;9.456;2022-12-29T04:40:01;1.52;;;0.80;;
70981;SDS011;58640;51.320;9.456;2022-12-29T04:42:27;1.00;;;0.65;;
70981;SDS011;58640;51.320;9.456;2022-12-29T04:44:52;0.90;;;0.70;;
70981;SDS011;58640;51.320;9.456;2022-12-29T04:47:17;2.15;;;0.90;;
70981;SDS011;58640;51.320;9.456;2022-12-29T04:49:43;3.13;;;0.60;;
70981;SDS011;58640;51.320;9.456;2022-12-29T04:52:09;0.55;;;0.55;;
70981;SDS011;58640;51.320;9.456;2022-12-29T04:54:35;0.85;;;0.75;;
70981;SDS011;58640;51.320;9.456;2022-12-29T04:57:00;0.95;;;0.95;;
70981;SDS011;58640;51.320;9.456;2022-12-29T04:59:26;0.70;;;0.70;;
70981;SDS011;58640;51.320;9.456;2022-12-29T05:01:51;1.13;;;0.90;;
70981;SDS011;58640;51.320;9.456;2022-12-29T05:04:16;1.42;;;1.05;;
70981;SDS011;58640;51.320;9.456;2022-12-29T05:06:42;2.67;;;1.02;;
70981;SDS011;58640;51.320;9.456;2022-12-29T05:09:07;1.55;;;1.10;;
70981;SDS011;58640;51.320;9.456;2022-12-29T05:11:32;0.82;;;0.82;;
70981;SDS011;58640;51.320;9.456;2022-12-29T05:13:58;1.33;;;0.88;;
70981;SDS011;58640;51.320;9.456;2022-12-29T05:16:23;1.25;;;1.00;;
70981;SDS011;58640;51.320;9.456;2022-12-29T05:18:48;1.13;;;1.02;;
70981;SDS011;58640;51.320;9.456;2022-12-29T05:21:14;1.00;;;0.95;;
70981;SDS011;58640;51.320;9.456;2022-12-29T05:23:39;1.13;;;1.00;;
70981;SDS011;58640;51.320;9.456;2022-12-29T05:26:04;0.93;;;0.63;;
70981;SDS011;58640;51.320;9.456;2022-12-29T05:28:30;0.93;;;0.80;;
70981;SDS011;58640;51.320;9.456;2022-12-29T05:30:55;3.08;;;0.70;;
70981;SDS011;58640;51.320;9.456;2022-12-29T05:33:20;1.20;;;0.77;;
70981;SDS011;58640;51.320;9.456;2022-12-29T05:35:46;0.90;;;0.90;;
70981;SDS011;58640;51.320;9.456;2022-12-29T05:38:11;0.55;;;0.55;;
70981;SDS011;58640;51.320;9.456;2022-12-29T05:40:36;0.80;;;0.70;;
70981;SDS011;58640;51.320;9.456;2022-12-29T05:43:02;0.68;;;0.68;;
70981;SDS011;58640;51.320;9.456;2022-12-29T05:45:27;0.60;;;0.60;;
70981;SDS011;58640;51.320;9.456;2022-12-29T05:47:52;1.13;;;0.60;;
70981;SDS011;58640;51.320;9.456;2022-12-29T05:50:18;2.67;;;0.90;;
70981;SDS011;58640;51.320;9.456;2022-12-29T05:52:43;0.77;;;0.68;;
70981;SDS011;58640;51.320;9.456;2022-12-29T05:55:09;2.55;;;1.10;;
70981;SDS011;58640;51.320;9.456;2022-12-29T05:57:34;0.85;;;0.63;;
70981;SDS011;58640;51.320;9.456;2022-12-29T05:59:59;3.17;;;0.90;;
70981;SDS011;58640;51.320;9.456;2022-12-29T06:02:25;3.13;;;0.73;;
70981;SDS011;58640;51.320;9.456;2022-12-29T06:04:50;1.08;;;0.75;;
70981;SDS011;58640;51.320;9.456;2022-12-29T06:07:15;1.10;;;0.70;;
70981;SDS011;58640;51.320;9.456;2022-12-29T06:09:41;2.92;;;0.70;;
70981;SDS011;58640;51.320;9.456;2022-12-29T06:12:06;1.63;;;0.98;;
70981;SDS011;58640;51.320;9.456;2022-12-29T06:14:31;1.20;;;0.82;;
70981;SDS011;58640;51.320;9.456;2022-12-29T06:16:57;0.43;;;0.43;;
70981;SDS011;58640;51.320;9.456;2022-12-29T06:19:22;1.95;;;0.63;;
70981;SDS011;58640;51.320;9.456;2022-12-29T06:21:48;0.82;;;0.63;;
70981;SDS011;58640;51.320;9.456;2022-12-29T06:24:13;0.57;;;0.55;;
70981;SDS011;58640;51.320;9.456;2022-12-29T06:26:38;0.60;;;0.60;;
70981;SDS011;58640;51.320;9.456;2022-12-29T06:29:05;1.95;;;0.68;;
70981;SDS011;58640;51.320;9.456;2022-12-29T06:31:31;0.80;;;0.80;;
70981;SDS011;58640;51.320;9.456;2022-12-29T06:33:57;0.50;;;0.50;;
70981;SDS011;58640;51.320;9.456;2022-12-29T06:36:22;0.82;;;0.75;;
70981;SDS011;58640;51.320;9.456;2022-12-29T06:38:48;0.80;;;0.60;;
70981;SDS011;58640;51.320;9.456;2022-12-29T06:41:13;1.50;;;0.90;;
70981;SDS011;58640;51.320;9.456;2022-12-29T06:43:39;0.80;;;0.80;;
70981;SDS011;58640;51.320;9.456;2022-12-29T06:46:04;5.38;;;0.90;;
70981;SDS011;58640;51.320;9.456;2022-12-29T06:48:30;1.83;;;0.90;;
70981;SDS011;58640;51.320;9.456;2022-12-29T06:50:55;2.08;;;1.48;;
70981;SDS011;58640;51.320;9.456;2022-12-29T06:53:20;1.52;;;1.40;;
70981;SDS011;58640;51.320;9.456;2022-12-29T06:55:46;1.48;;;1.38;;
70981;SDS011;58640;51.320;9.456;2022-12-29T06:58:11;1.10;;;1.00;;
70981;SDS011;58640;51.320;9.456;2022-12-29T07:00:36;1.65;;;1.55;;
70981;SDS011;58640;51.320;9.456;2022-12-29T07:03:02;2.35;;;1.25;;
70981;SDS011;58640;51.320;9.456;2022-12-29T07:05:27;1.98;;;1.30;;
70981;SDS011;58640;51.320;9.456;2022-12-29T07:07:53;2.08;;;1.23;;
70981;SDS011;58640;51.320;9.456;2022-12-29T07:10:19;3.22;;;1.30;;
70981;SDS011;58640;51.320;9.456;2022-12-29T07:12:44;1.63;;;1.30;;
70981;SDS011;58640;51.320;9.456;2022-12-29T07:15:10;2.83;;;1.48;;
70981;SDS011;58640;51.320;9.456;2022-12-29T07:17:35;2.15;;;1.10;;
70981;SDS011;58640;51.320;9.456;2022-12-29T07:20:00;3.05;;;1.50;;
70981;SDS011;58640;51.320;9.456;2022-12-29T07:22:26;1.45;;;1.25;;
70981;SDS011;58640;51.320;9.456;2022-12-29T07:24:51;1.50;;;1.35;;
70981;SDS011;58640;51.320;9.456;2022-12-29T07:27:16;2.50;;;1.40;;
70981;SDS011;58640;51.320;9.456;2022-12-29T07:29:42;2.45;;;1.23;;
70981;SDS011;58640;51.320;9.456;2022-12-29T07:32:07;5.15;;;1.65;;
70981;SDS011;58640;51.320;9.456;2022-12-29T07:34:32;3.60;;;1.58;;
70981;SDS011;58640;51.320;9.456;2022-12-29T07:36:58;3.10;;;2.05;;
70981;SDS011;58640;51.320;9.456;2022-12-29T07:39:23;3.05;;;1.70;;
70981;SDS011;58640;51.320;9.456;2022-12-29T07:41:48;2.88;;;1.67;;
70981;SDS011;58640;51.320;9.456;2022-12-29T07:44:14;4.13;;;1.48;;
70981;SDS011;58640;51.320;9.456;2022-12-29T07:46:39;2.25;;;1.30;;
70981;SDS011;58640;51.320;9.456;2022-12-29T07:49:04;5.57;;;1.75;;
70981;SDS011;58640;51.320;9.456;2022-12-29T07:51:30;1.95;;;1.42;;
70981;SDS011;58640;51.320;9.456;2022-12-29T07:53:56;4.45;;;1.45;;
70981;SDS011;58640;51.320;9.456;2022-12-29T07:56:21;3.88;;;1.67;;
70981;SDS011;58640;51.320;9.456;2022-12-29T07:58:47;2.28;;;1.40;;
70981;SDS011;58640;51.320;9.456;2022-12-29T08:01:12;4.28;;;1.70;;
70981;SDS011;58640;51.320;9.456;2022-12-29T08:03:37;2.65;;;2.00;;
70981;SDS011;58640;51.320;9.456;2022-12-29T08:06:04;7.43;;;1.98;;
70981;SDS011;58640;51.320;9.456;2022-12-29T08:08:30;4.05;;;2.85;;
70981;SDS011;58640;51.320;9.456;2022-12-29T08:10:55;3.63;;;2.25;;
70981;SDS011;58640;51.320;9.456;2022-12-29T08:13:20;2.10;;;1.63;;
70981;SDS011;58640;51.320;9.456;2022-12-29T08:15:45;2.42;;;1.80;;
70981;SDS011;58640;51.320;9.456;2022-12-29T08:18:11;3.75;;;1.40;;
70981;SDS011;58640;51.320;9.456;2022-12-29T08:20:36;1.88;;;1.40;;
70981;SDS011;58640;51.320;9.456;2022-12-29T08:23:01;1.10;;;1.00;;
70981;SDS011;58640;51.320;9.456;2022-12-29T08:25:27;2.55;;;1.63;;
70981;SDS011;58640;51.320;9.456;2022-12-29T08:27:52;3.47;;;1.48;;
70981;SDS011;58640;51.320;9.456;2022-12-29T08:30:17;2.63;;;1.52;;
70981;SDS011;58640;51.320;9.456;2022-12-29T08:32:43;3.63;;;1.40;;
70981;SDS011;58640;51.320;9.456;2022-12-29T08:35:08;2.83;;;1.63;;
70981;SDS011;58640;51.320;9.456;2022-12-29T08:37:34;2.15;;;1.42;;
70981;SDS011;58640;51.320;9.456;2022-12-29T08:39:59;3.42;;;1.48;;
70981;SDS011;58640;51.320;9.456;2022-12-29T08:42:28;2.13;;;1.23;;
70981;SDS011;58640;51.320;9.456;2022-12-29T08:44:56;4.78;;;1.65;;
70981;SDS011;58640;51.320;9.456;2022-12-29T08:47:24;2.40;;;1.83;;
70981;SDS011;58640;51.320;9.456;2022-12-29T08:49:50;3.35;;;1.63;;
70981;SDS011;58640;51.320;9.456;2022-12-29T08:52:15;3.78;;;1.70;;
70981;SDS011;58640;51.320;9.456;2022-12-29T08:54:41;2.85;;;1.40;;
70981;SDS011;58640;51.320;9.456;2022-12-29T08:57:06;3.90;;;1.60;;
70981;SDS011;58640;51.320;9.456;2022-12-29T08:59:31;3.13;;;1.60;;
70981;SDS011;58640;51.320;9.456;2022-12-29T09:01:57;3.22;;;1.25;;
70981;SDS011;58640;51.320;9.456;2022-12-29T09:04:22;0.63;;;0.40;;
70981;SDS011;58640;51.320;9.456;2022-12-29T09:06:48;3.30;;;0.40;;
70981;SDS011;58640;51.320;9.456;2022-12-29T09:09:14;0.25;;;0.20;;
70981;SDS011;58640;51.320;9.456;2022-12-29T09:11:39;3.08;;;0.30;;
70981;SDS011;58640;51.320;9.456;2022-12-29T09:14:05;1.65;;;0.30;;
70981;SDS011;58640;51.320;9.456;2022-12-29T09:16:31;2.30;;;0.28;;
70981;SDS011;58640;51.320;9.456;2022-12-29T09:18:57;0.60;;;0.40;;
70981;SDS011;58640;51.320;9.456;2022-12-29T09:21:22;0.60;;;0.43;;
70981;SDS011;58640;51.320;9.456;2022-12-29T09:23:48;0.40;;;0.30;;
70981;SDS011;58640;51.320;9.456;2022-12-29T09:26:13;0.45;;;0.43;;
70981;SDS011;58640;51.320;9.456;2022-12-29T09:28:39;0.63;;;0.30;;
70981;SDS011;58640;51.320;9.456;2022-12-29T09:31:05;0.90;;;0.57;;
70981;SDS011;58640;51.320;9.456;2022-12-29T09:33:30;1.33;;;0.68;;
70981;SDS011;58640;51.320;9.456;2022-12-29T09:35:58;1.15;;;0.50;;
70981;SDS011;58640;51.320;9.456;2022-12-29T09:38:24;1.55;;;0.50;;
70981;SDS011;58640;51.320;9.456;2022-12-29T09:40:51;1.80;;;0.80;;
70981;SDS011;58640;51.320;9.456;2022-12-29T09:46:07;0.85;;;0.68;;
70981;SDS011;58640;51.320;9.456;2022-12-29T09:48:44;0.40;;;0.40;;
70981;SDS011;58640;51.320;9.456;2022-12-29T09:51:16;1.10;;;0.45;;
70981;SDS011;58640;51.320;9.456;2022-12-29T09:53:51;1.10;;;0.50;;
70981;SDS011;58640;51.320;9.456;2022-12-29T09:56:21;0.70;;;0.60;;
70981;SDS011;58640;51.320;9.456;2022-12-29T09:59:05;0.80;;;0.80;;
70981;SDS011;58640;51.320;9.456;2022-12-29T10:04:10;0.65;;;0.57;;
70981;SDS011;58640;51.320;9.456;2022-12-29T10:06:46;0.82;;;0.60;;
70981;SDS011;58640;51.320;9.456;2022-12-29T10:09:31;2.00;;;0.80;;
70981;SDS011;58640;51.320;9.456;2022-12-29T10:12:11;1.08;;;0.60;;
70981;SDS011;58640;51.320;9.456;2022-12-29T10:15:02;0.70;;;0.50;;
70981;SDS011;58640;51.320;9.456;2022-12-29T10:25:57;1.45;;;0.82;;
70981;SDS011;58640;51.320;9.456;2022-12-29T10:28:35;0.65;;;0.60;;
70981;SDS011;58640;51.320;9.456;2022-12-29T10:31:08;2.30;;;0.68;;
70981;SDS011;58640;51.320;9.456;2022-12-29T10:33:39;1.20;;;0.55;;
70981;SDS011;58640;51.320;9.456;2022-12-29T10:36:12;1.23;;;0.50;;
70981;SDS011;58640;51.320;9.456;2022-12-29T10:41:49;2.15;;;0.73;;
70981;SDS011;58640;51.320;9.456;2022-12-29T10:44:19;1.27;;;0.65;;
70981;SDS011;58640;51.320;9.456;2022-12-29T10:46:49;1.65;;;0.60;;
70981;SDS011;58640;51.320;9.456;2022-12-29T10:49:20;1.17;;;0.50;;
70981;SDS011;58640;51.320;9.456;2022-12-29T10:51:46;1.45;;;0.55;;
70981;SDS011;58640;51.320;9.456;2022-12-29T10:57:02;0.98;;;0.63;;
70981;SDS011;58640;51.320;9.456;2022-12-29T10:59:35;0.88;;;0.50;;
70981;SDS011;58640;51.320;9.456;2022-12-29T11:07:28;1.30;;;0.50;;
70981;SDS011;58640;51.320;9.456;2022-12-29T11:09:55;1.08;;;0.47;;
70981;SDS011;58640;51.320;9.456;2022-12-29T11:12:40;0.68;;;0.40;;
70981;SDS011;58640;51.320;9.456;2022-12-29T11:17:42;0.77;;;0.60;;
70981;SDS011;58640;51.320;9.456;2022-12-29T11:23:04;1.73;;;0.50;;
70981;SDS011;58640;51.320;9.456;2022-12-29T11:31:43;0.35;;;0.30;;
70981;SDS011;58640;51.320;9.456;2022-12-29T11:34:21;0.55;;;0.40;;
70981;SDS011;58640;51.320;9.456;2022-12-29T11:36:58;1.70;;;0.90;;
70981;SDS011;58640;51.320;9.456;2022-12-29T11:42:16;1.92;;;0.40;;
70981;SDS011;58640;51.320;9.456;2022-12-29T11:44:46;2.08;;;0.40;;
70981;SDS011;58640;51.320;9.456;2022-12-29T11:47:19;2.00;;;0.63;;
70981;SDS011;58640;51.320;9.456;2022-12-29T11:49:53;2.10;;;0.70;;
70981;SDS011;58640;51.320;9.456;2022-12-29T11:52:23;2.33;;;0.60;;
70981;SDS011;58640;51.320;9.456;2022-12-29T11:54:52;2.47;;;0.52;;
70981;SDS011;58640;51.320;9.456;2022-12-29T11:57:19;0.65;;;0.57;;
70981;SDS011;58640;51.320;9.456;2022-12-29T11:59:51;2.58;;;0.40;;
70981;SDS011;58640;51.320;9.456;2022-12-29T12:04:49;3.75;;;0.60;;
70981;SDS011;58640;51.320;9.456;2022-12-29T12:07:24;3.05;;;0.82;;
70981;SDS011;58640;51.320;9.456;2022-12-29T12:10:04;1.77;;;0.70;;
70981;SDS011;58640;51.320;9.456;2022-12-29T12:12:47;4.22;;;0.65;;
70981;SDS011;58640;51.320;9.456;2022-12-29T12:15:24;2.53;;;0.50;;
70981;SDS011;58640;51.320;9.456;2022-12-29T12:18:08;3.70;;;0.55;;
70981;SDS011;58640;51.320;9.456;2022-12-29T12:20:45;3.30;;;0.65;;
70981;SDS011;58640;51.320;9.456;2022-12-29T12:28:53;1.35;;;0.60;;
70981;SDS011;58640;51.320;9.456;2022-12-29T12:31:33;3.65;;;0.60;;
70981;SDS011;58640;51.320;9.456;2022-12-29T12:34:13;1.65;;;0.40;;
70981;SDS011;58640;51.320;9.456;2022-12-29T12:36:57;2.90;;;0.60;;
70981;SDS011;58640;51.320;9.456;2022-12-29T12:39:34;2.65;;;0.80;;
70981;SDS011;58640;51.320;9.456;2022-12-29T12:45:11;0.70;;;0.40;;
70981;SDS011;58640;51.320;9.456;2022-12-29T12:48:00;1.90;;;0.70;;
70981;SDS011;58640;51.320;9.456;2022-12-29T12:59:09;1.60;;;0.70;;
70981;SDS011;58640;51.320;9.456;2022-12-29T13:01:50;1.73;;;0.50;;
70981;SDS011;58640;51.320;9.456;2022-12-29T13:04:32;3.03;;;0.85;;
70981;SDS011;58640;51.320;9.456;2022-12-29T13:07:36;3.45;;;0.60;;
70981;SDS011;58640;51.320;9.456;2022-12-29T13:20:52;2.08;;;0.50;;
70981;SDS011;58640;51.320;9.456;2022-12-29T13:23:25;3.90;;;0.70;;
70981;SDS011;58640;51.320;9.456;2022-12-29T13:26:28;0.85;;;0.50;;
70981;SDS011;58640;51.320;9.456;2022-12-29T13:29:43;1.83;;;0.70;;
70981;SDS011;58640;51.320;9.456;2022-12-29T13:37:17;2.83;;;0.50;;
70981;SDS011;58640;51.320;9.456;2022-12-29T13:39:49;2.78;;;0.60;;
70981;SDS011;58640;51.320;9.456;2022-12-29T13:42:19;0.95;;;0.30;;
70981;SDS011;58640;51.320;9.456;2022-12-29T13:45:00;1.58;;;0.60;;
70981;SDS011;58640;51.320;9.456;2022-12-29T13:47:34;2.55;;;0.68;;
70981;SDS011;58640;51.320;9.456;2022-12-29T13:50:05;3.65;;;0.77;;
70981;SDS011;58640;51.320;9.456;2022-12-29T13:52:44;1.02;;;0.47;;
70981;SDS011;58640;51.320;9.456;2022-12-29T14:03:52;0.82;;;0.43;;
70981;SDS011;58640;51.320;9.456;2022-12-29T14:06:22;3.47;;;0.57;;
70981;SDS011;58640;51.320;9.456;2022-12-29T14:08:50;1.48;;;0.63;;
70981;SDS011;58640;51.320;9.456;2022-12-29T14:11:18;4.05;;;0.60;;
70981;SDS011;58640;51.320;9.456;2022-12-29T14:13:46;2.97;;;0.90;;
70981;SDS011;58640;51.320;9.456;2022-12-29T14:22:09;1.40;;;0.57;;
70981;SDS011;58640;51.320;9.456;2022-12-29T14:24:40;4.50;;;0.70;;
70981;SDS011;58640;51.320;9.456;2022-12-29T14:34:48;4.03;;;0.98;;
70981;SDS011;58640;51.320;9.456;2022-12-29T14:37:27;1.73;;;0.63;;
70981;SDS011;58640;51.320;9.456;2022-12-29T14:43:01;2.90;;;0.65;;
70981;SDS011;58640;51.320;9.456;2022-12-29T14:45:36;0.65;;;0.60;;
70981;SDS011;58640;51.320;9.456;2022-12-29T14:51:17;4.65;;;1.77;;
70981;SDS011;58640;51.320;9.456;2022-12-29T14:53:46;5.93;;;0.80;;
70981;SDS011;58640;51.320;9.456;2022-12-29T14:56:14;5.00;;;0.70;;
70981;SDS011;58640;51.320;9.456;2022-12-29T14:58:48;5.70;;;0.70;;
70981;SDS011;58640;51.320;9.456;2022-12-29T15:01:20;1.80;;;0.60;;
70981;SDS011;58640;51.320;9.456;2022-12-29T15:03:50;4.15;;;0.50;;
70981;SDS011;58640;51.320;9.456;2022-12-29T15:06:19;2.00;;;0.60;;
70981;SDS011;58640;51.320;9.456;2022-12-29T15:08:54;2.92;;;0.80;;
70981;SDS011;58640;51.320;9.456;2022-12-29T15:14:25;1.73;;;0.77;;
70981;SDS011;58640;51.320;9.456;2022-12-29T15:17:09;3.55;;;0.90;;
70981;SDS011;58640;51.320;9.456;2022-12-29T15:19:49;2.13;;;0.80;;
70981;SDS011;58640;51.320;9.456;2022-12-29T15:22:14;2.83;;;0.88;;
70981;SDS011;58640;51.320;9.456;2022-12-29T15:24:43;1.52;;;0.82;;
70981;SDS011;58640;51.320;9.456;2022-12-29T15:27:15;1.98;;;0.70;;
70981;SDS011;58640;51.320;9.456;2022-12-29T15:29:44;2.58;;;0.80;;
70981;SDS011;58640;51.320;9.456;2022-12-29T15:34:45;4.57;;;1.98;;
70981;SDS011;58640;51.320;9.456;2022-12-29T15:37:20;2.22;;;0.55;;
70981;SDS011;58640;51.320;9.456;2022-12-29T15:39:47;3.08;;;1.00;;
70981;SDS011;58640;51.320;9.456;2022-12-29T15:45:09;3.60;;;0.88;;
70981;SDS011;58640;51.320;9.456;2022-12-29T15:47:37;4.63;;;0.90;;
70981;SDS011;58640;51.320;9.456;2022-12-29T15:52:39;5.68;;;1.42;;
70981;SDS011;58640;51.320;9.456;2022-12-29T15:55:05;7.10;;;1.27;;
70981;SDS011;58640;51.320;9.456;2022-12-29T15:57:42;3.55;;;1.23;;
70981;SDS011;58640;51.320;9.456;2022-12-29T16:00:29;3.80;;;1.13;;
70981;SDS011;58640;51.320;9.456;2022-12-29T16:02:57;11.63;;;2.05;;
70981;SDS011;58640;51.320;9.456;2022-12-29T16:05:31;5.25;;;0.95;;
70981;SDS011;58640;51.320;9.456;2022-12-29T16:07:58;5.72;;;1.20;;
70981;SDS011;58640;51.320;9.456;2022-12-29T16:10:30;4.60;;;1.98;;
70981;SDS011;58640;51.320;9.456;2022-12-29T16:13:01;4.60;;;0.90;;
70981;SDS011;58640;51.320;9.456;2022-12-29T16:16:07;2.78;;;0.88;;
70981;SDS011;58640;51.320;9.456;2022-12-29T16:18:38;1.88;;;0.80;;
70981;SDS011;58640;51.320;9.456;2022-12-29T16:21:04;2.88;;;0.73;;
70981;SDS011;58640;51.320;9.456;2022-12-29T16:23:38;4.68;;;0.80;;
70981;SDS011;58640;51.320;9.456;2022-12-29T16:26:04;3.33;;;0.73;;
70981;SDS011;58640;51.320;9.456;2022-12-29T16:28:41;4.82;;;0.77;;
70981;SDS011;58640;51.320;9.456;2022-12-29T16:31:16;2.38;;;0.80;;
70981;SDS011;58640;51.320;9.456;2022-12-29T16:33:47;3.15;;;0.77;;
70981;SDS011;58640;51.320;9.456;2022-12-29T16:38:49;5.43;;;0.82;;
70981;SDS011;58640;51.320;9.456;2022-12-29T16:41:30;4.50;;;1.83;;
70981;SDS011;58640;51.320;9.456;2022-12-29T16:44:12;3.08;;;0.90;;
70981;SDS011;58640;51.320;9.456;2022-12-29T16:46:58;3.28;;;0.80;;
70981;SDS011;58640;51.320;9.456;2022-12-29T16:49:40;3.67;;;0.93;;
70981;SDS011;58640;51.320;9.456;2022-12-29T16:52:18;3.53;;;1.23;;
70981;SDS011;58640;51.320;9.456;2022-12-29T16:54:50;3.40;;;1.00;;
70981;SDS011;58640;51.320;9.456;2022-12-29T16:57:22;3.03;;;1.02;;
70981;SDS011;58640;51.320;9.456;2022-12-29T16:59:50;3.08;;;1.25;;
70981;SDS011;58640;51.320;9.456;2022-12-29T17:02:19;3.67;;;0.90;;
70981;SDS011;58640;51.320;9.456;2022-12-29T17:04:47;5.47;;;1.23;;
70981;SDS011;58640;51.320;9.456;2022-12-29T17:07:18;2.42;;;0.60;;
70981;SDS011;58640;51.320;9.456;2022-12-29T17:09:45;2.10;;;0.77;;
70981;SDS011;58640;51.320;9.456;2022-12-29T17:12:13;3.28;;;1.00;;
70981;SDS011;58640;51.320;9.456;2022-12-29T17:17:45;2.97;;;0.98;;
70981;SDS011;58640;51.320;9.456;2022-12-29T17:20:15;0.70;;;0.60;;
70981;SDS011;58640;51.320;9.456;2022-12-29T17:22:46;3.10;;;0.70;;
70981;SDS011;58640;51.320;9.456;2022-12-29T17:25:19;3.05;;;0.98;;
70981;SDS011;58640;51.320;9.456;2022-12-29T17:27:58;3.38;;;1.13;;
70981;SDS011;58640;51.320;9.456;2022-12-29T17:30:25;4.88;;;1.05;;